createdAt,value
2022-08-05T00:01:36.295Z,8.45
2022-08-05T00:04:17.569Z,6.00
2022-08-05T00:06:45.384Z,5.53
2022-08-05T00:09:15.839Z,8.13
2022-08-05T00:11:49.320Z,6.90
2022-08-05T00:14:27.632Z,8.18
2022-08-05T00:16:57.715Z,12.50
2022-08-05T00:19:33.410Z,8.48
2022-08-05T00:22:02.937Z,5.78
2022-08-05T00:24:31.891Z,11.40
2022-08-05T00:27:00.487Z,9.07
2022-08-05T00:29:37.562Z,10.13
2022-08-05T00:32:12.325Z,8.73
2022-08-05T00:35:04.095Z,10.43
2022-08-05T00:37:35.455Z,8.55
2022-08-05T00:40:27.286Z,8.00
2022-08-05T00:42:58.529Z,5.90
2022-08-05T00:45:38.104Z,10.45
2022-08-05T00:48:14.977Z,8.35
2022-08-05T00:50:46.104Z,7.00
2022-08-05T00:53:59.975Z,7.60
2022-08-05T00:56:08.268Z,7.65
2022-08-05T00:58:37.057Z,8.07
2022-08-05T01:01:08.696Z,6.03
2022-08-05T01:03:38.790Z,6.60
2022-08-05T01:06:11.411Z,7.25
2022-08-05T01:08:44.608Z,10.40
2022-08-05T01:11:37.086Z,6.95
2022-08-05T01:14:08.749Z,7.07
2022-08-05T01:16:49.293Z,8.77
2022-08-05T01:19:36.705Z,8.55
2022-08-05T01:22:34.574Z,6.50
2022-08-05T01:25:56.502Z,24.73
2022-08-05T01:29:05.406Z,6.32
2022-08-05T01:31:44.924Z,10.35
2022-08-05T01:34:17.696Z,9.25
2022-08-05T01:36:50.621Z,9.32
2022-08-05T01:39:45.601Z,8.90
2022-08-05T01:42:12.648Z,7.40
2022-08-05T01:44:42.994Z,6.70
2022-08-05T01:47:18.793Z,9.23
2022-08-05T01:50:02.021Z,8.90
2022-08-05T01:52:32.607Z,6.53
2022-08-05T01:55:04.626Z,11.40
2022-08-05T01:58:10.382Z,8.98
2022-08-05T02:00:29.876Z,13.38
2022-08-05T02:03:03.654Z,13.00
2022-08-05T02:05:35.976Z,17.67
2022-08-05T02:08:05.761Z,15.88
2022-08-05T02:10:43.246Z,11.07
2022-08-05T02:13:57.457Z,20.48
2022-08-05T02:16:30.263Z,24.98
2022-08-05T02:19:16.330Z,16.23
2022-08-05T02:21:52.617Z,17.80
2022-08-05T02:24:29.448Z,14.32
2022-08-05T02:27:10.129Z,18.23
2022-08-05T02:29:59.408Z,9.05
2022-08-05T02:32:31.879Z,13.40
2022-08-05T02:35:14.117Z,14.57
2022-08-05T02:37:47.872Z,18.95
2022-08-05T02:40:24.330Z,15.93
2022-08-05T02:42:55.375Z,14.82
2022-08-05T02:45:25.638Z,13.13
2022-08-05T02:48:07.326Z,10.38
2022-08-05T02:50:45.971Z,11.15
2022-08-05T02:53:19.069Z,15.60
2022-08-05T02:55:53.770Z,11.80
2022-08-05T02:58:26.747Z,7.30
2022-08-05T03:01:01.850Z,11.43
2022-08-05T03:03:34.036Z,8.80
2022-08-05T03:06:54.184Z,11.23
2022-08-05T03:09:11.391Z,10.15
2022-08-05T03:11:55.240Z,7.80
2022-08-05T03:14:25.168Z,13.18
2022-08-05T03:16:54.217Z,10.55
2022-08-05T03:19:33.021Z,8.65
2022-08-05T03:22:02.396Z,8.52
2022-08-05T03:24:33.614Z,15.63
2022-08-05T03:27:02.617Z,20.60
2022-08-05T03:29:45.200Z,15.50
2022-08-05T03:32:19.563Z,14.57
2022-08-05T03:34:50.665Z,12.98
2022-08-05T03:37:20.976Z,16.08
2022-08-05T03:39:59.062Z,11.52
2022-08-05T03:42:29.179Z,12.50
2022-08-05T03:45:01.778Z,11.23
2022-08-05T03:47:35.486Z,12.63
2022-08-05T03:50:10.164Z,11.70
2022-08-05T03:55:34.297Z,14.90
2022-08-05T03:56:11.907Z,10.35
2022-08-05T03:58:46.882Z,11.50
2022-08-05T04:01:20.906Z,11.95
2022-08-05T04:03:56.967Z,16.45
2022-08-05T04:06:47.544Z,14.10
2022-08-05T04:09:25.885Z,14.63
2022-08-05T04:11:56.394Z,17.80
2022-08-05T04:14:29.823Z,19.52
2022-08-05T04:17:00.641Z,16.00
2022-08-05T04:19:29.262Z,18.85
2022-08-05T04:22:10.247Z,19.40
2022-08-05T04:24:44.521Z,23.98
2022-08-05T04:27:33.338Z,25.25
2022-08-05T04:30:09.627Z,24.88
2022-08-05T04:32:37.646Z,19.88
2022-08-05T04:35:07.431Z,17.70
2022-08-05T04:38:02.865Z,17.77
2022-08-05T04:40:35.323Z,17.95
2022-08-05T04:43:04.198Z,13.25
2022-08-05T04:45:48.184Z,13.93
2022-08-05T04:48:27.007Z,12.98
2022-08-05T04:51:03.674Z,13.10
2022-08-05T04:53:39.701Z,11.63
2022-08-05T04:56:33.099Z,10.15
2022-08-05T04:58:56.718Z,7.72
2022-08-05T05:02:08.337Z,13.05
2022-08-05T05:04:12.151Z,8.32
2022-08-05T05:06:44.430Z,10.77
2022-08-05T05:09:17.495Z,12.10
2022-08-05T05:11:54.662Z,11.30
2022-08-05T05:14:27.734Z,10.02
2022-08-05T05:17:03.369Z,10.57
2022-08-05T05:19:37.240Z,11.50
2022-08-05T05:22:23.923Z,8.13
2022-08-05T05:25:00.290Z,6.93
2022-08-05T05:27:44.867Z,7.38
2022-08-05T05:30:30.627Z,7.28
2022-08-05T05:33:03.776Z,11.60
2022-08-05T05:35:42.600Z,11.63
2022-08-05T05:38:13.433Z,9.27
2022-08-05T05:40:49.811Z,7.88
2022-08-05T05:43:27.997Z,8.70
2022-08-05T05:46:13.629Z,10.82
2022-08-05T05:48:44.377Z,10.80
2022-08-05T05:51:15.444Z,9.20
2022-08-05T05:53:54.433Z,9.98
2022-08-05T05:56:32.197Z,11.63
2022-08-05T05:59:06.640Z,7.72
2022-08-05T06:01:37.005Z,11.18
2022-08-05T06:04:14.783Z,8.30
2022-08-05T06:06:47.660Z,6.57
2022-08-05T06:09:24.753Z,9.65
2022-08-05T06:12:02.140Z,8.32
2022-08-05T06:14:31.404Z,8.45
2022-08-05T06:17:02.017Z,6.93
2022-08-05T06:19:56.701Z,8.57
2022-08-05T06:22:29.769Z,12.75
2022-08-05T06:24:57.716Z,12.52
2022-08-05T06:28:12.248Z,11.40
2022-08-05T06:30:18.167Z,8.75
2022-08-05T06:32:50.776Z,11.07
2022-08-05T06:36:04.234Z,11.13
2022-08-05T06:38:11.195Z,8.50
2022-08-05T06:40:44.448Z,9.75
2022-08-05T06:43:51.503Z,11.60
2022-08-05T06:46:04.044Z,8.95
2022-08-05T06:48:52.907Z,11.40
2022-08-05T06:51:30.084Z,11.38
2022-08-05T06:53:59.589Z,10.65
2022-08-05T06:56:28.447Z,9.02
2022-08-05T06:58:56.041Z,10.63
2022-08-05T07:01:27.680Z,9.68
2022-08-05T07:04:02.344Z,7.28
2022-08-05T07:06:30.597Z,9.75
2022-08-05T07:09:04.291Z,7.15
2022-08-05T07:11:37.024Z,9.30
2022-08-05T07:14:29.704Z,15.70
2022-08-05T07:17:59.115Z,11.43
2022-08-05T07:20:31.645Z,10.30
2022-08-05T07:22:38.532Z,7.35
2022-08-05T07:25:23.803Z,7.60
2022-08-05T07:27:57.086Z,8.57
2022-08-05T07:30:32.174Z,9.15
2022-08-05T07:33:09.597Z,8.75
2022-08-05T07:36:04.909Z,9.93
2022-08-05T07:38:33.757Z,10.73
2022-08-05T07:42:08.441Z,9.63
2022-08-05T07:43:58.891Z,8.35
2022-08-05T07:46:28.978Z,9.80
2022-08-05T07:49:01.471Z,11.73
2022-08-05T07:51:40.971Z,8.98
2022-08-05T07:54:16.357Z,11.55
2022-08-05T07:57:01.973Z,11.05
2022-08-05T07:59:40.338Z,12.32
2022-08-05T08:02:15.789Z,8.88
2022-08-05T08:04:49.197Z,11.80
2022-08-05T08:07:22.178Z,11.07
2022-08-05T08:09:52.897Z,7.65
2022-08-05T08:12:33.376Z,8.73
2022-08-05T08:15:09.412Z,13.25
2022-08-05T08:17:50.592Z,11.30
2022-08-05T08:20:44.280Z,14.60
2022-08-05T08:24:02.164Z,8.55
2022-08-05T08:26:02.790Z,10.63
2022-08-05T08:28:37.192Z,11.73
2022-08-05T08:31:20.704Z,7.80
2022-08-05T08:33:51.723Z,8.98
2022-08-05T08:36:38.778Z,8.93
2022-08-05T08:39:15.501Z,9.35
2022-08-05T08:41:52.656Z,7.25
2022-08-05T08:45:16.964Z,9.48
2022-08-05T08:48:06.381Z,6.50
2022-08-05T08:50:32.930Z,7.93
2022-08-05T08:53:12.214Z,7.43
2022-08-05T08:56:04.658Z,7.72
2022-08-05T08:58:37.678Z,6.55
2022-08-05T09:01:16.483Z,5.13
2022-08-05T09:03:55.071Z,9.00
2022-08-05T09:06:29.396Z,6.47
2022-08-05T09:09:00.486Z,12.32
2022-08-05T09:11:52.686Z,9.82
2022-08-05T09:14:56.298Z,5.45
2022-08-05T09:17:08.249Z,8.65
2022-08-05T09:20:01.520Z,7.53
2022-08-05T09:22:31.871Z,7.40
2022-08-05T09:25:23.621Z,10.35
2022-08-05T09:28:03.830Z,7.82
2022-08-05T09:30:35.057Z,6.90
2022-08-05T09:33:04.792Z,5.63
2022-08-05T09:35:32.712Z,9.55
2022-08-05T09:38:16.772Z,6.40
2022-08-05T09:40:52.425Z,6.95
2022-08-05T09:43:41.842Z,6.15
2022-08-05T09:46:28.543Z,6.88
2022-08-05T09:49:07.556Z,9.27
2022-08-05T09:51:38.588Z,8.80
2022-08-05T09:54:09.404Z,8.63
2022-08-05T09:56:39.288Z,6.93
2022-08-05T09:59:10.095Z,6.15
2022-08-05T10:01:46.566Z,7.47
2022-08-05T10:04:16.150Z,7.40
2022-08-05T10:06:59.632Z,10.70
2022-08-05T10:09:29.882Z,3.97
2022-08-05T10:12:30.073Z,5.80
2022-08-05T10:15:16.409Z,9.07
2022-08-05T10:18:03.401Z,6.13
2022-08-05T10:20:33.363Z,6.20
2022-08-05T10:23:01.849Z,9.18
2022-08-05T10:25:31.021Z,5.90
2022-08-05T10:28:16.789Z,9.07
2022-08-05T10:32:52.339Z,5.57
2022-08-05T10:33:36.131Z,8.18
2022-08-05T10:36:04.967Z,8.15
2022-08-05T10:38:36.112Z,5.15
2022-08-05T10:41:44.955Z,3.95
2022-08-05T10:44:19.053Z,5.55
2022-08-05T10:46:55.467Z,4.07
2022-08-05T10:49:32.954Z,7.25
2022-08-05T10:52:03.292Z,4.35
2022-08-05T10:55:06.733Z,6.25
2022-08-05T10:57:35.522Z,6.28
2022-08-05T11:00:20.474Z,6.00
2022-08-05T11:03:25.053Z,4.68
2022-08-05T11:06:08.633Z,4.07
2022-08-05T11:09:18.917Z,5.90
2022-08-05T11:17:56.809Z,6.80
2022-08-05T11:20:39.215Z,4.65
2022-08-05T11:23:49.876Z,4.95
2022-08-05T11:26:32.229Z,4.18
2022-08-05T11:29:13.325Z,4.60
2022-08-05T11:31:58.329Z,5.70
2022-08-05T11:34:52.215Z,4.35
2022-08-05T11:38:30.516Z,5.18
2022-08-05T11:41:54.656Z,5.15
2022-08-05T11:44:12.591Z,4.35
2022-08-05T11:47:12.097Z,5.95
2022-08-05T11:49:50.938Z,5.47
2022-08-05T11:52:29.391Z,3.38
2022-08-05T11:54:59.188Z,4.88
2022-08-05T11:58:08.325Z,6.22
2022-08-05T12:00:30.676Z,3.40
2022-08-05T12:03:16.677Z,3.92
2022-08-05T12:06:06.457Z,3.75
2022-08-05T12:08:51.929Z,3.25
2022-08-05T12:11:28.306Z,3.80
2022-08-05T12:14:10.303Z,5.82
2022-08-05T12:16:45.510Z,7.93
2022-08-05T12:20:16.801Z,5.55
2022-08-05T12:22:06.073Z,5.65
2022-08-05T12:24:49.422Z,5.47
2022-08-05T12:27:26.117Z,5.40
2022-08-05T12:30:15.352Z,6.75
2022-08-05T12:32:51.139Z,5.00
2022-08-05T12:35:21.759Z,4.63
2022-08-05T12:37:49.745Z,5.90
2022-08-05T12:40:26.711Z,11.52
2022-08-05T12:42:57.476Z,5.30
2022-08-05T12:45:49.783Z,5.65
2022-08-05T12:48:26.892Z,6.35
2022-08-05T12:51:21.643Z,4.18
2022-08-05T12:54:04.916Z,7.20
2022-08-05T12:56:49.046Z,4.57
2022-08-05T12:59:46.410Z,6.10
2022-08-05T13:02:15.499Z,4.95
2022-08-05T13:04:52.248Z,5.93
2022-08-05T13:07:55.883Z,4.55
2022-08-05T13:10:19.721Z,5.90
2022-08-05T13:12:51.156Z,4.47
2022-08-05T13:15:42.220Z,4.95
2022-08-05T13:18:20.201Z,5.03
2022-08-05T13:20:50.040Z,5.32
2022-08-05T13:23:22.446Z,5.10
2022-08-05T13:25:59.171Z,5.10
2022-08-05T13:28:28.030Z,7.00
2022-08-05T13:30:57.181Z,6.20
2022-08-05T13:34:24.148Z,9.25
2022-08-05T13:36:14.463Z,6.82
2022-08-05T13:38:43.258Z,6.18
2022-08-05T13:41:11.690Z,10.32
2022-08-05T13:43:45.890Z,6.97
2022-08-05T13:46:44.027Z,7.95
2022-08-05T13:49:13.624Z,7.68
2022-08-05T13:51:46.538Z,6.95
2022-08-05T13:54:21.099Z,9.45
2022-08-05T13:56:52.607Z,7.07
2022-08-05T13:59:23.965Z,8.23
2022-08-05T14:01:56.907Z,8.45
2022-08-05T14:04:57.309Z,8.10
2022-08-05T14:08:00.138Z,5.38
2022-08-05T14:10:28.890Z,7.15
2022-08-05T14:12:57.103Z,6.50
2022-08-05T14:16:04.985Z,9.65
2022-08-05T14:18:17.727Z,7.18
2022-08-05T14:20:48.011Z,5.60
2022-08-05T14:23:23.449Z,5.47
2022-08-05T14:25:54.543Z,6.47
2022-08-05T14:28:29.988Z,6.57
2022-08-05T14:30:59.772Z,5.97
2022-08-05T14:33:56.281Z,8.07
2022-08-05T14:36:21.262Z,5.25
2022-08-05T14:38:51.280Z,8.45
2022-08-05T14:41:20.305Z,7.25
2022-08-05T14:43:59.674Z,5.07
2022-08-05T14:46:35.291Z,9.32
2022-08-05T14:49:07.483Z,9.82
2022-08-05T14:51:42.966Z,8.23
2022-08-05T14:54:30.058Z,7.05
2022-08-05T14:56:59.788Z,10.60
2022-08-05T14:59:29.727Z,11.90
2022-08-05T15:02:14.873Z,10.27
2022-08-05T15:04:43.877Z,5.30
2022-08-05T15:08:12.251Z,10.23
2022-08-05T15:10:01.213Z,7.28
2022-08-05T15:12:36.868Z,9.93
2022-08-05T15:15:16.919Z,8.82
2022-08-05T15:18:05.626Z,8.52
2022-08-05T15:20:34.362Z,6.68
2022-08-05T15:23:09.684Z,3.83
2022-08-05T15:25:51.461Z,4.90
2022-08-05T15:28:22.234Z,3.67
2022-08-05T15:30:55.434Z,4.97
2022-08-05T15:34:04.522Z,5.95
2022-08-05T15:36:17.798Z,4.65
2022-08-05T15:40:39.699Z,5.75
2022-08-05T15:41:57.412Z,6.35
2022-08-05T15:44:28.109Z,6.60
2022-08-05T15:47:00.893Z,4.72
2022-08-05T15:49:47.890Z,5.95
2022-08-05T15:52:51.938Z,3.75
2022-08-05T15:55:10.555Z,6.75
2022-08-05T15:57:45.124Z,3.78
2022-08-05T16:00:13.722Z,4.07
2022-08-05T16:02:44.867Z,4.88
2022-08-05T16:05:12.746Z,7.18
2022-08-05T16:07:46.264Z,4.40
2022-08-05T16:10:14.518Z,7.15
2022-08-05T16:12:42.162Z,5.85
2022-08-05T16:15:10.461Z,11.07
2022-08-05T16:17:57.303Z,6.05
2022-08-05T16:20:26.094Z,4.50
2022-08-05T16:22:55.721Z,4.05
2022-08-05T16:25:32.189Z,4.97
2022-08-05T16:28:10.254Z,3.65
2022-08-05T16:30:38.078Z,6.32
2022-08-05T16:33:06.444Z,5.25
2022-08-05T16:35:41.998Z,4.88
2022-08-05T16:38:18.543Z,5.63
2022-08-05T16:41:00.350Z,4.20
2022-08-05T16:43:34.569Z,5.97
2022-08-05T16:46:12.927Z,6.25
2022-08-05T16:48:52.296Z,4.35
2022-08-05T16:51:20.733Z,3.88
2022-08-05T16:54:04.180Z,4.57
2022-08-05T16:56:41.373Z,6.70
2022-08-05T16:59:10.182Z,3.80
2022-08-05T17:01:54.044Z,5.55
2022-08-05T17:04:28.018Z,5.05
2022-08-05T17:07:03.214Z,5.55
2022-08-05T17:09:57.459Z,7.00
2022-08-05T17:12:51.739Z,3.70
2022-08-05T17:15:19.208Z,6.00
2022-08-05T17:17:54.723Z,3.90
2022-08-05T17:20:23.112Z,6.75
2022-08-05T17:22:55.293Z,6.72
2022-08-05T17:25:34.242Z,6.45
2022-08-05T17:28:09.267Z,5.60
2022-08-05T17:30:42.746Z,7.97
2022-08-05T17:33:20.161Z,4.53
2022-08-05T17:36:08.683Z,3.60
2022-08-05T17:38:35.433Z,7.30
2022-08-05T17:41:03.161Z,4.85
2022-08-05T17:43:46.762Z,5.32
2022-08-05T17:46:20.233Z,4.13
2022-08-05T17:48:48.592Z,6.78
2022-08-05T17:51:21.425Z,7.68
2022-08-05T17:53:50.934Z,7.55
2022-08-05T17:56:22.721Z,10.85
2022-08-05T17:58:51.409Z,5.90
2022-08-05T18:01:19.872Z,8.65
2022-08-05T18:03:59.498Z,17.27
2022-08-05T18:06:32.541Z,18.95
2022-08-05T18:09:00.081Z,14.93
2022-08-05T18:11:33.531Z,17.77
2022-08-05T18:14:07.280Z,22.25
2022-08-05T18:16:43.719Z,21.67
2022-08-05T18:19:22.969Z,22.73
2022-08-05T18:22:08.266Z,19.90
2022-08-05T18:24:37.965Z,19.00
2022-08-05T18:27:12.861Z,18.88
2022-08-05T18:29:54.340Z,22.65
2022-08-05T18:32:27.665Z,17.17
2022-08-05T18:34:57.023Z,12.38
2022-08-05T18:37:34.547Z,17.60
2022-08-05T18:40:33.906Z,17.75
2022-08-05T18:42:59.834Z,17.25
2022-08-05T18:45:41.264Z,17.13
2022-08-05T18:48:11.016Z,12.90
2022-08-05T18:52:05.715Z,8.80
2022-08-05T18:53:56.027Z,16.17
2022-08-05T18:56:25.335Z,14.38
2022-08-05T18:58:54.786Z,8.88
2022-08-05T19:01:47.403Z,13.95
2022-08-05T19:04:12.316Z,12.13
2022-08-05T19:06:45.282Z,16.42
2022-08-05T19:09:13.282Z,13.23
2022-08-05T19:11:59.987Z,17.02
2022-08-05T19:14:37.820Z,18.98
2022-08-05T19:17:18.313Z,14.05
2022-08-05T19:19:48.680Z,10.90
2022-08-05T19:22:17.162Z,12.80
2022-08-05T19:24:56.234Z,13.52
2022-08-05T19:27:27.823Z,17.65
2022-08-05T19:29:58.306Z,22.80
2022-08-05T19:32:27.817Z,18.63
2022-08-05T19:34:57.944Z,18.85
2022-08-05T19:37:30.089Z,18.08
2022-08-05T19:40:15.056Z,18.98
2022-08-05T19:42:42.997Z,16.45
2022-08-05T19:45:33.178Z,13.23
2022-08-05T19:48:05.394Z,10.88
2022-08-05T19:50:34.975Z,12.40
2022-08-05T19:53:09.511Z,13.93
2022-08-05T19:56:14.878Z,12.57
2022-08-05T19:58:29.329Z,11.20
2022-08-05T20:00:59.301Z,13.18
2022-08-05T20:03:27.327Z,16.33
2022-08-05T20:06:11.763Z,13.55
2022-08-05T20:08:47.437Z,11.65
2022-08-05T20:11:18.011Z,13.48
2022-08-05T20:13:54.878Z,8.95
2022-08-05T20:16:34.806Z,11.02
2022-08-05T20:19:03.403Z,15.57
2022-08-05T20:21:32.379Z,18.40
2022-08-05T20:24:00.967Z,15.20
2022-08-05T20:26:28.520Z,18.45
2022-08-05T20:29:00.504Z,13.13
2022-08-05T20:31:42.833Z,10.93
2022-08-05T20:34:16.604Z,12.38
2022-08-05T20:36:44.734Z,13.40
2022-08-05T20:39:16.158Z,11.07
2022-08-05T20:41:46.567Z,14.38
2022-08-05T20:44:30.677Z,13.73
2022-08-05T20:47:04.111Z,15.38
2022-08-05T20:49:38.039Z,12.98
2022-08-05T20:52:10.656Z,13.63
2022-08-05T20:54:43.009Z,16.40
2022-08-05T20:57:24.526Z,12.38
2022-08-05T21:00:40.727Z,13.98
2022-08-05T21:03:06.056Z,15.30
2022-08-05T21:05:48.392Z,12.57
2022-08-05T21:08:41.626Z,12.65
2022-08-05T21:11:12.560Z,11.45
2022-08-05T21:13:47.500Z,16.08
2022-08-05T21:16:29.641Z,12.25
2022-08-05T21:19:02.020Z,10.70
2022-08-05T21:21:39.606Z,9.32
2022-08-05T21:24:15.313Z,11.38
2022-08-05T21:26:50.549Z,8.93
2022-08-05T21:29:31.850Z,13.75
2022-08-05T21:32:01.879Z,12.90
2022-08-05T21:34:31.742Z,9.57
2022-08-05T21:37:00.770Z,12.70
2022-08-05T21:39:29.611Z,13.02
2022-08-05T21:42:01.189Z,13.20
2022-08-05T21:44:30.986Z,14.27
2022-08-05T21:47:02.080Z,11.18
2022-08-05T21:49:59.271Z,13.30
2022-08-05T21:52:27.799Z,12.95
2022-08-05T21:55:07.138Z,12.45
2022-08-05T21:57:35.955Z,12.52
2022-08-05T22:00:11.149Z,15.63
2022-08-05T22:02:41.671Z,15.18
2022-08-05T22:05:11.762Z,17.92
2022-08-05T22:07:59.303Z,11.32
2022-08-05T22:10:28.190Z,15.02
2022-08-05T22:12:59.110Z,11.05
2022-08-05T22:15:57.223Z,11.60
2022-08-05T22:18:34.722Z,12.27
2022-08-05T22:21:04.683Z,10.25
2022-08-05T22:24:02.953Z,10.18
2022-08-05T22:26:50.656Z,12.30
2022-08-05T22:29:26.883Z,12.07
2022-08-05T22:31:59.394Z,12.30
2022-08-05T22:34:31.473Z,14.93
2022-08-05T22:37:00.231Z,12.30
2022-08-05T22:39:32.963Z,13.25
2022-08-05T22:42:10.353Z,10.97
2022-08-05T22:44:39.665Z,13.52
2022-08-05T22:47:08.142Z,9.60
2022-08-05T22:50:19.393Z,11.43
2022-08-05T22:52:32.378Z,14.20
2022-08-05T22:55:02.614Z,15.35
2022-08-05T22:57:36.584Z,16.90
2022-08-05T23:00:08.060Z,14.63
2022-08-05T23:02:40.102Z,20.65
2022-08-05T23:05:15.845Z,19.55
2022-08-05T23:07:44.952Z,20.08
2022-08-05T23:10:13.868Z,19.80
2022-08-05T23:12:43.835Z,17.67
2022-08-05T23:15:11.911Z,16.55
2022-08-05T23:18:01.796Z,13.57
2022-08-05T23:20:27.457Z,18.20
2022-08-05T23:22:56.548Z,17.85
2022-08-05T23:25:52.962Z,20.77
2022-08-05T23:28:15.833Z,14.32
2022-08-05T23:30:53.569Z,16.55
2022-08-05T23:33:26.171Z,15.50
2022-08-05T23:36:11.183Z,14.50
2022-08-05T23:38:42.651Z,14.43
2022-08-05T23:41:11.023Z,17.63
2022-08-05T23:44:06.396Z,13.13
2022-08-05T23:46:26.605Z,14.00
2022-08-05T23:49:00.999Z,11.80
2022-08-05T23:51:55.092Z,10.75
2022-08-05T23:54:25.936Z,12.77
2022-08-05T23:57:03.364Z,12.50
